05MO weather

Portageville Community Heliport
Portageville, Missouri, United States

Public forecast

Using degrees Fahrenheit for public forecast. Weather courtesy of forecast.io.

METAR (pilot weather report)

Closest report is Kennett Memorial Airport, 21.1 nm (39.2 km) SW. Retrieved 2019/05/25 23:35 UTC (0 seconds ago):

KTKX 252335Z AUTO 23009KT 10SM CLR 32/18 A3003 RMK AO2

TAF (pilot weather forecast)

Closest forecast is Cape Girardeau Regional Airport, 48.1 nm (89.0 km) N. Retrieved 2019/05/25 18:22 UTC (5 hours ago):

TAF KCGI 251720Z 2518/2618 24012G22KT P6SM FEW045 SCT250 FM260100 18004KT P6SM SCT250 FM261500 22010G19KT P6SM SCT250